createdAt,value
2018-01-11T00:01:46.389Z,2.00
2018-01-11T00:04:15.434Z,2.00
2018-01-11T00:06:43.815Z,2.00
2018-01-11T00:09:13.788Z,2.00
2018-01-11T00:11:42.136Z,2.00
2018-01-11T00:14:11.442Z,2.00
2018-01-11T00:16:41.455Z,2.00
2018-01-11T00:19:10.654Z,2.10
2018-01-11T00:21:39.410Z,2.10
2018-01-11T00:24:08.276Z,2.00
2018-01-11T00:26:37.736Z,2.00
2018-01-11T00:29:07.015Z,2.00
2018-01-11T00:31:35.714Z,2.00
2018-01-11T00:34:04.056Z,1.90
2018-01-11T00:36:32.600Z,1.90
2018-01-11T00:39:02.910Z,1.80
2018-01-11T00:41:31.968Z,1.80
2018-01-11T00:44:01.519Z,1.80
2018-01-11T00:46:29.693Z,1.70
2018-01-11T00:48:57.958Z,1.70
2018-01-11T00:51:26.639Z,1.60
2018-01-11T00:53:55.922Z,1.60
2018-01-11T00:56:24.870Z,1.60
2018-01-11T00:58:52.901Z,1.70
2018-01-11T01:01:21.845Z,1.70
2018-01-11T01:03:50.909Z,1.70
2018-01-11T01:06:19.969Z,1.60
2018-01-11T01:08:49.484Z,1.60
2018-01-11T01:11:18.298Z,1.50
2018-01-11T01:13:46.732Z,1.50
2018-01-11T01:16:14.956Z,1.40
2018-01-11T01:18:43.808Z,1.30
2018-01-11T01:21:12.050Z,1.20
2018-01-11T01:23:41.325Z,1.10
2018-01-11T01:26:10.177Z,1.10
2018-01-11T01:28:38.957Z,1.00
2018-01-11T01:31:07.737Z,0.90
2018-01-11T01:33:36.630Z,0.80
2018-01-11T01:36:05.610Z,0.80
2018-01-11T01:38:35.191Z,0.80
2018-01-11T01:41:04.558Z,0.80
2018-01-11T01:43:33.619Z,0.80
2018-01-11T01:46:02.212Z,0.80
2018-01-11T01:48:30.946Z,0.80
2018-01-11T01:51:01.133Z,0.80
2018-01-11T01:53:29.812Z,0.80
2018-01-11T01:55:59.382Z,0.70
2018-01-11T01:58:28.826Z,0.60
2018-01-11T02:00:57.497Z,0.60
2018-01-11T02:03:26.389Z,0.60
2018-01-11T02:05:54.990Z,0.50
2018-01-11T02:08:24.425Z,0.50
2018-01-11T02:10:53.025Z,0.50
2018-01-11T02:13:22.240Z,0.40
2018-01-11T02:15:50.469Z,0.30
2018-01-11T02:18:19.494Z,0.30
2018-01-11T02:20:47.902Z,0.30
2018-01-11T02:23:17.444Z,0.30
2018-01-11T02:25:46.132Z,0.40
2018-01-11T02:28:15.133Z,0.40
2018-01-11T02:30:43.754Z,0.30
2018-01-11T02:33:12.425Z,0.30
2018-01-11T02:35:41.948Z,0.10
2018-01-11T02:38:10.692Z,0.00
2018-01-11T02:40:40.275Z,0.00
2018-01-11T02:43:08.736Z,0.00
2018-01-11T02:45:37.446Z,-0.10
2018-01-11T02:48:06.993Z,0.00
2018-01-11T02:50:35.754Z,0.00
2018-01-11T02:53:04.698Z,0.10
2018-01-11T02:55:34.629Z,0.10
2018-01-11T02:58:03.371Z,0.00
2018-01-11T03:00:32.308Z,-0.10
2018-01-11T03:03:01.072Z,-0.10
2018-01-11T03:05:30.887Z,-0.10
2018-01-11T03:07:59.567Z,-0.10
2018-01-11T03:10:28.892Z,-0.20
2018-01-11T03:12:58.094Z,-0.30
2018-01-11T03:15:26.598Z,-0.30
2018-01-11T03:17:55.962Z,-0.40
2018-01-11T03:20:25.206Z,-0.40
2018-01-11T03:22:54.166Z,-0.50
2018-01-11T03:25:23.146Z,-0.50
2018-01-11T03:27:52.294Z,-0.50
2018-01-11T03:30:21.703Z,-0.60
2018-01-11T03:32:52.393Z,-0.50
2018-01-11T03:35:21.055Z,-0.60
2018-01-11T03:37:49.368Z,-0.60
2018-01-11T03:40:18.934Z,-0.60
2018-01-11T03:42:47.174Z,-0.60
2018-01-11T03:45:15.436Z,-0.60
2018-01-11T03:47:43.676Z,-0.60
2018-01-11T03:50:13.365Z,-0.70
2018-01-11T03:52:42.934Z,-0.70
2018-01-11T03:55:11.345Z,-0.70
2018-01-11T03:57:41.252Z,-0.70
2018-01-11T04:00:10.008Z,-0.80
2018-01-11T04:02:38.255Z,-0.70
2018-01-11T04:05:07.958Z,-0.70
2018-01-11T04:07:36.534Z,-0.70
2018-01-11T04:10:05.457Z,-0.70
2018-01-11T04:12:34.782Z,-0.80
2018-01-11T04:15:03.007Z,-0.70
2018-01-11T04:17:31.745Z,-0.70
2018-01-11T04:20:00.050Z,-0.60
2018-01-11T04:22:28.314Z,-0.60
2018-01-11T04:24:56.707Z,-0.60
2018-01-11T04:27:26.346Z,-0.60
2018-01-11T04:29:55.157Z,-0.60
2018-01-11T04:32:23.967Z,-0.60
2018-01-11T04:34:52.693Z,-0.50
2018-01-11T04:37:22.111Z,-0.50
2018-01-11T04:39:50.354Z,-0.50
2018-01-11T04:42:19.040Z,-0.50
2018-01-11T04:44:48.583Z,-0.50
2018-01-11T04:47:16.724Z,-0.40
2018-01-11T04:49:45.459Z,-0.40
2018-01-11T04:52:15.012Z,-0.40
2018-01-11T04:54:44.364Z,-0.40
2018-01-11T04:57:12.587Z,-0.30
2018-01-11T04:59:41.644Z,-0.30
2018-01-11T05:02:10.144Z,-0.30
2018-01-11T05:04:39.049Z,-0.30
2018-01-11T05:07:08.097Z,-0.30
2018-01-11T05:09:37.450Z,-0.30
2018-01-11T05:12:07.497Z,-0.30
2018-01-11T05:14:37.224Z,-0.30
2018-01-11T05:17:05.858Z,-0.30
2018-01-11T05:19:34.489Z,-0.30
2018-01-11T05:22:04.480Z,-0.30
2018-01-11T05:24:33.204Z,-0.30
2018-01-11T05:27:03.081Z,-0.30
2018-01-11T05:29:32.405Z,-0.30
2018-01-11T05:32:02.870Z,-0.30
2018-01-11T05:34:31.882Z,-0.30
2018-01-11T05:37:01.065Z,-0.30
2018-01-11T05:39:29.918Z,-0.30
2018-01-11T05:41:58.917Z,-0.20
2018-01-11T05:44:28.188Z,-0.10
2018-01-11T05:46:56.749Z,-0.10
2018-01-11T05:49:25.635Z,-0.10
2018-01-11T05:51:55.027Z,-0.10
2018-01-11T05:54:23.353Z,-0.10
2018-01-11T05:56:52.168Z,-0.10
2018-01-11T05:59:20.939Z,-0.10
2018-01-11T06:01:50.402Z,0.00
2018-01-11T06:04:18.989Z,0.00
2018-01-11T06:06:47.889Z,0.10
2018-01-11T06:09:17.683Z,0.10
2018-01-11T06:11:45.885Z,0.00
2018-01-11T06:14:15.785Z,0.10
2018-01-11T06:16:44.432Z,0.10
2018-01-11T06:19:13.655Z,0.20
2018-01-11T06:21:41.859Z,0.20
2018-01-11T06:24:11.392Z,0.20
2018-01-11T06:26:40.339Z,0.20
2018-01-11T06:29:08.749Z,0.20
2018-01-11T06:31:37.650Z,0.20
2018-01-11T06:34:06.693Z,0.20
2018-01-11T06:36:36.343Z,0.10
2018-01-11T06:39:05.104Z,0.10
2018-01-11T06:41:35.021Z,0.10
2018-01-11T06:44:03.721Z,0.10
2018-01-11T06:46:32.635Z,0.20
2018-01-11T06:49:01.979Z,0.20
2018-01-11T06:51:30.608Z,0.20
2018-01-11T06:53:59.940Z,0.20
2018-01-11T06:56:28.013Z,0.20
2018-01-11T06:58:56.301Z,0.30
2018-01-11T07:01:25.390Z,0.30
2018-01-11T07:03:55.114Z,0.30
2018-01-11T07:06:24.217Z,0.30
2018-01-11T07:08:54.713Z,0.30
2018-01-11T07:11:23.207Z,0.30
2018-01-11T07:13:52.252Z,0.40
2018-01-11T07:16:21.413Z,0.40
2018-01-11T07:18:50.065Z,0.50
2018-01-11T07:21:18.245Z,0.50
2018-01-11T07:23:46.924Z,0.50
2018-01-11T07:26:15.579Z,0.60
2018-01-11T07:28:44.239Z,0.60
2018-01-11T07:31:12.962Z,0.60
2018-01-11T07:33:41.652Z,0.70
2018-01-11T07:36:10.596Z,0.80
2018-01-11T07:38:39.936Z,0.80
2018-01-11T07:41:09.336Z,0.70
2018-01-11T07:43:37.855Z,0.80
2018-01-11T07:46:06.760Z,0.90
2018-01-11T07:48:34.894Z,1.00
2018-01-11T07:51:04.574Z,1.00
2018-01-11T07:53:33.381Z,1.10
2018-01-11T07:56:02.480Z,1.10
2018-01-11T07:58:32.220Z,1.20
2018-01-11T08:01:01.798Z,1.20
2018-01-11T08:03:30.484Z,1.20
2018-01-11T08:05:59.096Z,1.30
2018-01-11T08:08:28.350Z,1.30
2018-01-11T08:10:58.140Z,1.40
2018-01-11T08:13:26.962Z,1.40
2018-01-11T08:15:56.870Z,1.50
2018-01-11T08:18:26.882Z,1.50
2018-01-11T08:20:55.876Z,1.50
2018-01-11T08:23:25.344Z,1.50
2018-01-11T08:25:54.448Z,1.60
2018-01-11T08:28:22.919Z,1.70
2018-01-11T08:30:51.896Z,1.80
2018-01-11T08:33:21.217Z,1.80
2018-01-11T08:35:50.068Z,1.90
2018-01-11T08:38:20.077Z,1.80
2018-01-11T08:40:48.486Z,1.90
2018-01-11T08:43:18.019Z,2.00
2018-01-11T08:45:47.710Z,2.10
2018-01-11T08:48:16.603Z,2.10
2018-01-11T08:50:45.766Z,2.20
2018-01-11T08:53:14.828Z,2.30
2018-01-11T08:55:43.932Z,2.30
2018-01-11T08:58:12.684Z,2.30
2018-01-11T09:00:41.868Z,2.50
2018-01-11T09:03:10.802Z,2.50
2018-01-11T09:05:39.774Z,2.60
2018-01-11T09:08:09.416Z,2.80
2018-01-11T09:10:38.410Z,2.90
2018-01-11T09:13:07.113Z,3.00
2018-01-11T09:15:36.836Z,3.30
2018-01-11T09:18:05.115Z,3.50
2018-01-11T09:20:34.711Z,3.90
2018-01-11T09:23:03.587Z,4.20
2018-01-11T09:25:32.368Z,4.80
2018-01-11T09:28:01.523Z,5.40
2018-01-11T09:30:30.610Z,5.80
2018-01-11T09:33:00.216Z,6.70
2018-01-11T09:35:29.488Z,7.10
2018-01-11T09:37:57.991Z,7.10
2018-01-11T09:40:26.271Z,7.60
2018-01-11T09:42:55.732Z,8.10
2018-01-11T09:45:23.925Z,8.10
2018-01-11T09:47:52.861Z,8.00
2018-01-11T09:50:21.052Z,7.50
2018-01-11T09:52:49.574Z,7.20
2018-01-11T09:55:19.290Z,7.00
2018-01-11T09:57:48.939Z,7.50
2018-01-11T10:00:18.190Z,7.50
2018-01-11T10:02:50.258Z,7.20
2018-01-11T10:05:19.640Z,7.20
2018-01-11T10:07:49.391Z,7.10
2018-01-11T10:10:19.045Z,7.00
2018-01-11T10:12:48.082Z,7.30
2018-01-11T10:15:17.473Z,7.20
2018-01-11T10:17:46.457Z,7.30
2018-01-11T10:20:15.178Z,7.30
2018-01-11T10:22:43.853Z,7.30
2018-01-11T10:25:13.740Z,7.50
2018-01-11T10:27:43.297Z,8.00
2018-01-11T10:30:12.346Z,8.40
2018-01-11T10:32:41.846Z,8.40
2018-01-11T10:35:17.005Z,8.60
2018-01-11T10:37:46.684Z,8.60
2018-01-11T10:40:15.881Z,9.20
2018-01-11T10:42:45.384Z,9.80
2018-01-11T10:45:13.562Z,9.70
2018-01-11T10:47:43.842Z,10.40
2018-01-11T10:50:12.524Z,10.40
2018-01-11T10:52:41.444Z,10.20
2018-01-11T10:55:10.640Z,10.50
2018-01-11T10:57:39.431Z,10.50
2018-01-11T11:00:08.528Z,10.80
2018-01-11T11:02:39.100Z,10.80
2018-01-11T11:05:08.002Z,11.10
2018-01-11T11:07:37.648Z,11.30
2018-01-11T11:10:06.960Z,11.80
2018-01-11T11:12:36.096Z,12.20
2018-01-11T11:15:04.827Z,12.80
2018-01-11T11:17:34.623Z,13.10
2018-01-11T11:20:02.896Z,13.00
2018-01-11T11:22:32.467Z,13.20
2018-01-11T11:25:01.698Z,12.90
2018-01-11T11:27:30.446Z,12.30
2018-01-11T11:29:59.427Z,12.10
2018-01-11T11:32:28.801Z,11.70
2018-01-11T11:34:58.155Z,11.60
2018-01-11T11:37:27.458Z,11.50
2018-01-11T11:39:56.952Z,11.50
2018-01-11T11:42:25.403Z,11.50
2018-01-11T11:44:54.640Z,11.80
2018-01-11T11:47:23.675Z,11.10
2018-01-11T11:49:52.316Z,11.10
2018-01-11T11:52:22.089Z,11.20
2018-01-11T11:54:50.299Z,10.60
2018-01-11T11:57:20.060Z,10.30
2018-01-11T11:59:50.088Z,10.20
2018-01-11T12:02:18.763Z,9.90
2018-01-11T12:04:48.214Z,10.00
2018-01-11T12:07:16.976Z,9.80
2018-01-11T12:09:45.810Z,9.90
2018-01-11T12:12:15.053Z,10.10
2018-01-11T12:14:43.469Z,9.90
2018-01-11T12:17:12.072Z,10.00
2018-01-11T12:19:41.412Z,9.90
2018-01-11T12:22:09.841Z,9.90
2018-01-11T12:24:38.991Z,9.80
2018-01-11T12:27:07.542Z,9.90
2018-01-11T12:29:36.494Z,9.60
2018-01-11T12:32:05.387Z,9.70
2018-01-11T12:34:34.472Z,9.50
2018-01-11T12:37:03.048Z,9.60
2018-01-11T12:39:31.460Z,9.50
2018-01-11T12:42:00.668Z,9.20
2018-01-11T12:44:29.622Z,9.40
2018-01-11T12:46:58.725Z,9.40
2018-01-11T12:49:27.605Z,9.40
2018-01-11T12:51:55.901Z,9.30
2018-01-11T12:54:24.272Z,9.30
2018-01-11T12:56:54.420Z,9.30
2018-01-11T12:59:23.757Z,9.30
2018-01-11T13:01:52.281Z,9.20
2018-01-11T13:04:21.095Z,9.20
2018-01-11T13:06:49.764Z,9.20
2018-01-11T13:09:18.494Z,9.20
2018-01-11T13:11:47.183Z,9.20
2018-01-11T13:14:16.549Z,9.40
2018-01-11T13:16:44.739Z,9.50
2018-01-11T13:19:13.766Z,9.60
2018-01-11T13:21:41.982Z,9.70
2018-01-11T13:24:11.777Z,9.60
2018-01-11T13:26:41.190Z,10.10
2018-01-11T13:29:10.454Z,10.10
2018-01-11T13:31:39.043Z,10.30
2018-01-11T13:34:08.168Z,10.60
2018-01-11T13:36:37.336Z,10.90
2018-01-11T13:39:06.995Z,11.10
2018-01-11T13:41:35.995Z,11.10
2018-01-11T13:44:04.559Z,11.10
2018-01-11T13:46:33.571Z,10.80
2018-01-11T13:49:02.991Z,10.70
2018-01-11T13:51:33.552Z,10.60
2018-01-11T13:54:02.424Z,10.50
2018-01-11T13:56:32.066Z,10.40
2018-01-11T13:59:01.335Z,10.40
2018-01-11T14:01:31.389Z,10.30
2018-01-11T14:03:59.647Z,10.30
2018-01-11T14:06:29.834Z,10.60
2018-01-11T14:08:58.027Z,10.50
2018-01-11T14:11:27.008Z,10.20
2018-01-11T14:13:56.307Z,10.00
2018-01-11T14:16:25.864Z,9.80
2018-01-11T14:18:56.518Z,9.50
2018-01-11T14:21:26.562Z,9.40
2018-01-11T14:23:56.587Z,9.40
2018-01-11T14:26:25.467Z,9.30
2018-01-11T14:28:54.444Z,9.10
2018-01-11T14:31:23.765Z,9.00
2018-01-11T14:33:53.166Z,9.00
2018-01-11T14:36:21.428Z,8.90
2018-01-11T14:38:50.509Z,8.90
2018-01-11T14:41:19.964Z,8.90
2018-01-11T14:43:48.323Z,8.90
2018-01-11T14:46:17.104Z,8.90
2018-01-11T14:48:47.078Z,8.70
2018-01-11T14:51:15.743Z,8.60
2018-01-11T14:53:44.726Z,8.60
2018-01-11T14:56:13.665Z,8.60
2018-01-11T14:58:42.683Z,8.60
2018-01-11T15:01:11.878Z,8.60
2018-01-11T15:03:40.417Z,8.50
2018-01-11T15:06:10.415Z,8.50
2018-01-11T15:08:39.218Z,8.40
2018-01-11T15:11:08.998Z,8.40
2018-01-11T15:13:37.873Z,8.30
2018-01-11T15:16:07.924Z,8.20
2018-01-11T15:18:36.846Z,8.10
2018-01-11T15:21:05.775Z,8.00
2018-01-11T15:23:34.502Z,7.90
2018-01-11T15:26:03.492Z,7.80
2018-01-11T15:28:33.818Z,7.60
2018-01-11T15:31:03.927Z,7.50
2018-01-11T15:33:32.546Z,7.40
2018-01-11T15:51:24.465Z,7.20
2018-01-11T15:53:53.079Z,6.50
2018-01-11T15:56:21.707Z,6.50
2018-01-11T15:58:50.703Z,6.40
2018-01-11T16:01:20.396Z,6.40
2018-01-11T16:03:49.391Z,6.40
2018-01-11T16:06:18.486Z,6.40
2018-01-11T16:08:47.923Z,6.30
2018-01-11T16:11:16.720Z,6.20
2018-01-11T16:13:45.443Z,6.20
2018-01-11T16:16:13.754Z,6.10
2018-01-11T16:18:44.506Z,6.00
2018-01-11T16:21:13.437Z,6.00
2018-01-11T16:23:42.119Z,6.00
2018-01-11T16:26:11.098Z,5.90
2018-01-11T16:28:39.836Z,5.90
2018-01-11T16:31:09.283Z,5.80
2018-01-11T16:33:38.185Z,5.90
2018-01-11T16:36:07.998Z,6.00
2018-01-11T16:38:37.547Z,5.90
2018-01-11T16:41:05.812Z,5.80
2018-01-11T16:43:34.514Z,5.70
2018-01-11T16:46:03.780Z,5.60
2018-01-11T16:48:32.740Z,5.40
2018-01-11T16:51:01.462Z,5.40
2018-01-11T16:53:31.142Z,5.20
2018-01-11T16:55:59.338Z,5.20
2018-01-11T16:58:28.388Z,5.10
2018-01-11T17:00:57.931Z,5.00
2018-01-11T17:03:26.913Z,5.00
2018-01-11T17:05:55.746Z,5.20
2018-01-11T17:08:25.182Z,5.30
2018-01-11T17:10:54.301Z,5.30
2018-01-11T17:13:23.923Z,5.30
2018-01-11T17:15:52.458Z,5.30
2018-01-11T17:18:21.924Z,5.20
2018-01-11T17:20:50.473Z,5.20
2018-01-11T17:23:18.966Z,5.20
2018-01-11T17:25:48.411Z,5.20
2018-01-11T17:28:16.861Z,5.10
2018-01-11T17:30:46.004Z,5.00
2018-01-11T17:33:15.089Z,4.90
2018-01-11T17:35:43.198Z,4.90
2018-01-11T17:38:11.990Z,4.90
2018-01-11T17:40:41.490Z,4.80
2018-01-11T17:43:12.395Z,4.60
2018-01-11T17:45:41.061Z,4.60
2018-01-11T17:48:10.080Z,4.50
2018-01-11T17:50:39.017Z,4.40
2018-01-11T17:53:08.011Z,4.20
2018-01-11T17:55:37.134Z,4.10
2018-01-11T17:58:06.946Z,4.00
2018-01-11T18:00:36.091Z,3.90
2018-01-11T18:03:04.944Z,3.80
2018-01-11T18:05:33.405Z,3.70
2018-01-11T18:08:02.292Z,3.60
2018-01-11T18:10:31.231Z,3.50
2018-01-11T18:13:00.258Z,3.50
2018-01-11T18:15:29.638Z,3.50
2018-01-11T18:17:57.971Z,3.40
2018-01-11T18:20:26.925Z,3.40
2018-01-11T18:22:55.601Z,3.40
2018-01-11T18:25:23.814Z,3.30
2018-01-11T18:27:53.728Z,3.30
2018-01-11T18:30:23.910Z,3.10
2018-01-11T18:32:52.548Z,3.00
2018-01-11T18:35:23.107Z,2.90
2018-01-11T18:37:53.185Z,2.80
2018-01-11T18:40:21.389Z,2.70
2018-01-11T18:42:50.660Z,2.50
2018-01-11T18:45:19.423Z,2.40
2018-01-11T18:47:48.123Z,2.30
2018-01-11T18:50:16.975Z,2.30
2018-01-11T18:52:45.994Z,2.30
2018-01-11T18:55:15.406Z,2.20
2018-01-11T18:57:43.714Z,2.20
2018-01-11T19:00:14.096Z,2.30
2018-01-11T19:02:42.296Z,2.30
2018-01-11T19:05:10.942Z,2.30
2018-01-11T19:07:40.488Z,2.30
2018-01-11T19:10:10.553Z,2.30
2018-01-11T19:12:39.563Z,2.30
2018-01-11T19:15:08.050Z,2.40
2018-01-11T19:17:37.395Z,2.40
2018-01-11T19:20:07.686Z,2.40
2018-01-11T19:22:36.699Z,2.40
2018-01-11T19:25:06.295Z,2.30
2018-01-11T19:27:35.250Z,2.30
2018-01-11T19:30:03.961Z,2.40
2018-01-11T19:32:32.855Z,2.40
2018-01-11T19:35:02.324Z,2.40
2018-01-11T19:37:31.272Z,2.40
2018-01-11T19:39:59.930Z,2.50
2018-01-11T19:42:28.469Z,2.50
2018-01-11T19:44:56.718Z,2.50
2018-01-11T19:47:25.739Z,2.40
2018-01-11T19:49:55.252Z,2.40
2018-01-11T19:52:23.881Z,2.40
2018-01-11T19:54:53.851Z,2.40
2018-01-11T20:12:46.044Z,2.40
2018-01-11T20:15:15.363Z,2.10
2018-01-11T20:17:44.284Z,2.20
2018-01-11T20:20:14.312Z,2.10
2018-01-11T20:22:43.445Z,2.20
2018-01-11T20:25:12.404Z,2.10
2018-01-11T20:27:41.154Z,2.10
2018-01-11T20:30:09.781Z,2.20
2018-01-11T20:32:39.247Z,2.10
2018-01-11T20:35:07.428Z,2.20
2018-01-11T20:37:37.121Z,2.20
2018-01-11T20:40:05.811Z,2.20
2018-01-11T20:42:34.460Z,2.20
2018-01-11T20:45:03.306Z,2.20
2018-01-11T20:47:31.848Z,2.20
2018-01-11T20:50:00.541Z,2.20
2018-01-11T20:52:29.142Z,2.30
2018-01-11T20:54:59.050Z,2.40
2018-01-11T20:57:28.616Z,2.50
2018-01-11T20:59:57.653Z,2.50
2018-01-11T21:02:27.024Z,2.50
2018-01-11T21:04:55.925Z,2.50
2018-01-11T21:07:24.538Z,2.50
2018-01-11T21:09:53.600Z,2.50
2018-01-11T21:12:22.177Z,2.50
2018-01-11T21:14:50.784Z,2.60
2018-01-11T21:17:19.144Z,2.60
2018-01-11T21:19:48.089Z,2.60
2018-01-11T21:22:17.691Z,2.60
2018-01-11T21:24:46.069Z,2.60
2018-01-11T21:27:15.381Z,2.60
2018-01-11T21:29:43.944Z,2.60
2018-01-11T21:32:12.368Z,2.60
2018-01-11T21:34:42.110Z,2.60
2018-01-11T21:37:10.504Z,2.60
2018-01-11T21:39:39.220Z,2.60
2018-01-11T21:42:07.456Z,2.70
2018-01-11T21:44:35.898Z,2.70
2018-01-11T21:47:03.685Z,2.80
2018-01-11T21:49:32.043Z,2.80
2018-01-11T21:52:00.699Z,2.70
2018-01-11T21:54:30.035Z,2.70
2018-01-11T21:56:59.478Z,2.70
2018-01-11T21:59:27.894Z,2.70
2018-01-11T22:01:58.205Z,2.70
2018-01-11T22:04:27.421Z,2.80
2018-01-11T22:06:56.543Z,2.80
2018-01-11T22:09:25.065Z,2.80
2018-01-11T22:11:54.593Z,2.90
2018-01-11T22:14:23.266Z,2.90
2018-01-11T22:16:51.987Z,3.00
2018-01-11T22:19:20.240Z,3.00
2018-01-11T22:21:49.661Z,3.00
2018-01-11T22:24:18.516Z,3.00
2018-01-11T22:26:47.233Z,3.00
2018-01-11T22:29:15.725Z,3.10
2018-01-11T22:31:44.260Z,3.10
2018-01-11T22:34:13.330Z,3.10
2018-01-11T22:36:41.548Z,3.10
2018-01-11T22:39:10.607Z,3.10
2018-01-11T22:41:39.522Z,3.10
2018-01-11T22:44:09.191Z,3.10
2018-01-11T22:46:38.410Z,3.10
2018-01-11T22:49:07.106Z,3.10
2018-01-11T22:51:36.220Z,3.20
2018-01-11T22:54:05.093Z,3.10
2018-01-11T22:56:34.797Z,3.30
2018-01-11T22:59:03.670Z,3.20
2018-01-11T23:01:32.376Z,3.30
2018-01-11T23:04:00.921Z,3.30
2018-01-11T23:06:29.121Z,3.30
2018-01-11T23:08:58.173Z,3.40
2018-01-11T23:11:26.935Z,3.40
2018-01-11T23:13:55.836Z,3.40
2018-01-11T23:16:24.604Z,3.30
2018-01-11T23:18:53.772Z,3.30
2018-01-11T23:21:22.455Z,3.30
2018-01-11T23:23:51.624Z,3.30
2018-01-11T23:26:20.454Z,3.30
2018-01-11T23:28:49.492Z,3.30
2018-01-11T23:31:18.070Z,3.40
2018-01-11T23:33:47.130Z,3.40
2018-01-11T23:36:16.116Z,3.30
2018-01-11T23:38:45.312Z,3.20
2018-01-11T23:41:13.875Z,3.20
2018-01-11T23:43:42.086Z,3.20
2018-01-11T23:46:10.334Z,3.20
2018-01-11T23:48:38.648Z,3.20
2018-01-11T23:51:06.772Z,3.20
2018-01-11T23:53:35.118Z,3.30
2018-01-11T23:56:04.726Z,3.20
2018-01-11T23:58:33.464Z,3.20
